Time;durP1;ratioP1;P1;durP2;ratioP2;P2;SDS_P1;SDS_P2;PMS_P1;PMS_P2;Temp;Humidity;BMP_temperature;BMP_pressure;BME280_temperature;BME280_humidity;BME280_pressure;Samples;Min_cycle;Max_cycle;Signal;HPM_P1;HPM_P2
2022/09/22 00:00:53;;;;;;;1.20;0.95;;;9.30;99.90;;;;;;5061154;28;20783;-71
2022/09/22 00:03:18;;;;;;;1.60;1.30;;;9.20;99.90;;;;;;5070082;28;20445;-71
2022/09/22 00:05:43;;;;;;;1.10;0.90;;;9.20;99.90;;;;;;5068177;28;20773;-71
2022/09/22 00:08:09;;;;;;;1.50;1.40;;;9.20;99.90;;;;;;5061794;28;20398;-71
2022/09/22 00:10:34;;;;;;;1.37;1.20;;;9.20;99.90;;;;;;5070232;28;20392;-71
2022/09/22 00:13:00;;;;;;;1.67;1.10;;;9.20;99.90;;;;;;5069674;28;20474;-71
2022/09/22 00:15:25;;;;;;;1.27;1.13;;;9.20;99.90;;;;;;5061063;28;20996;-71
2022/09/22 00:17:51;;;;;;;1.27;1.17;;;9.10;99.90;;;;;;5062648;28;20405;-71
2022/09/22 00:20:17;;;;;;;1.63;1.20;;;9.00;99.90;;;;;;5068052;28;20991;-72
2022/09/22 00:22:42;;;;;;;1.30;1.10;;;9.10;99.90;;;;;;5069227;28;20503;-71
2022/09/22 00:25:09;;;;;;;2.40;1.20;;;9.10;99.90;;;;;;5068115;28;20470;-71
2022/09/22 00:27:34;;;;;;;1.40;1.30;;;9.00;99.90;;;;;;5056389;28;20492;-71
2022/09/22 00:30:00;;;;;;;1.60;1.40;;;9.10;99.90;;;;;;5052431;28;20446;-72
2022/09/22 00:32:26;;;;;;;1.10;1.00;;;9.00;99.90;;;;;;5069998;28;20409;-71
2022/09/22 00:34:51;;;;;;;1.30;1.20;;;9.00;99.90;;;;;;5069959;28;20380;-71
2022/09/22 00:37:17;;;;;;;1.20;1.00;;;8.90;99.90;;;;;;5070021;28;20408;-71
2022/09/22 00:39:43;;;;;;;1.20;1.10;;;9.00;99.90;;;;;;5059036;28;20407;-71
2022/09/22 00:42:11;;;;;;;1.23;1.13;;;9.10;99.90;;;;;;5067989;28;20410;-71
2022/09/22 00:44:41;;;;;;;1.67;1.58;;;9.00;99.90;;;;;;5063204;28;20422;-71
2022/09/22 00:47:30;;;;;;;1.20;1.10;;;9.10;99.90;;;;;;5062266;28;20419;-72
2022/09/22 00:50:09;;;;;;;2.28;1.30;;;8.90;99.90;;;;;;5067590;28;20425;-71
2022/09/22 00:52:59;;;;;;;1.30;1.10;;;8.90;99.90;;;;;;5066920;28;20488;-72
2022/09/22 00:55:32;;;;;;;1.90;1.30;;;8.90;99.90;;;;;;5068449;28;20774;-71
2022/09/22 00:58:00;;;;;;;1.67;1.20;;;8.90;99.90;;;;;;5068433;28;20395;-71
2022/09/22 01:00:25;;;;;;;1.90;1.38;;;8.80;99.90;;;;;;5069484;28;20387;-71
2022/09/22 01:02:55;;;;;;;1.70;1.60;;;8.80;99.90;;;;;;5062548;28;20409;-71
2022/09/22 01:05:23;;;;;;;2.10;1.42;;;8.80;99.90;;;;;;5068276;28;20399;-71
2022/09/22 01:07:49;;;;;;;1.30;1.20;;;8.80;99.90;;;;;;5063378;28;20467;-71
2022/09/22 01:10:15;;;;;;;1.60;1.50;;;8.80;99.90;;;;;;5058483;28;20450;-72
2022/09/22 01:12:52;;;;;;;1.50;1.40;;;8.80;99.90;;;;;;5108744;22;21040;-73
2022/09/22 01:15:51;;;;;;;1.20;1.10;;;8.80;99.90;;;;;;5108734;28;20444;-72
2022/09/22 01:18:47;;;;;;;1.40;1.30;;;8.70;99.90;;;;;;5109972;28;20449;-72
2022/09/22 01:21:22;;;;;;;1.90;1.30;;;8.60;99.90;;;;;;5108804;28;20476;-72
2022/09/22 01:24:13;;;;;;;1.30;1.20;;;8.60;99.90;;;;;;5104439;28;20482;-72
2022/09/22 01:27:24;;;;;;;1.42;1.33;;;8.60;99.90;;;;;;5105008;28;20411;-72
2022/09/22 01:30:22;;;;;;;1.98;1.38;;;8.50;99.90;;;;;;5089157;28;20378;-72
2022/09/22 01:33:29;;;;;;;1.48;1.17;;;8.50;99.90;;;;;;5093084;28;20431;-72
2022/09/22 01:36:15;;;;;;;1.73;1.33;;;8.50;99.90;;;;;;5102264;28;20850;-72
2022/09/22 01:38:54;;;;;;;1.40;1.30;;;8.40;99.90;;;;;;5109569;28;20381;-72
2022/09/22 01:41:50;;;;;;;1.20;1.05;;;8.40;99.90;;;;;;5109764;28;20859;-72
2022/09/22 01:45:02;;;;;;;1.30;1.20;;;8.50;99.90;;;;;;5106879;28;20400;-72
2022/09/22 01:47:39;;;;;;;1.40;1.20;;;8.50;99.90;;;;;;5100125;28;20973;-72
2022/09/22 01:50:17;;;;;;;1.88;1.20;;;8.50;99.90;;;;;;5109276;28;20384;-72
2022/09/22 01:52:43;;;;;;;1.50;1.40;;;8.40;99.90;;;;;;5108011;28;20397;-72
2022/09/22 01:55:23;;;;;;;1.50;1.35;;;8.60;99.90;;;;;;5109494;28;20711;-72
2022/09/22 01:58:06;;;;;;;2.85;1.55;;;8.60;99.90;;;;;;5107880;28;20949;-72
2022/09/22 02:00:33;;;;;;;1.20;1.10;;;8.50;99.90;;;;;;5105872;28;20405;-72
2022/09/22 02:03:39;;;;;;;1.90;1.30;;;8.50;99.90;;;;;;5107315;28;21034;-73
2022/09/22 02:06:32;;;;;;;1.30;1.20;;;8.50;99.90;;;;;;5098296;28;20427;-72
2022/09/22 02:09:00;;;;;;;1.40;1.30;;;8.50;99.90;;;;;;5098011;28;20421;-72
2022/09/22 02:11:26;;;;;;;1.40;1.10;;;8.40;99.90;;;;;;5109686;28;20384;-73
2022/09/22 02:13:51;;;;;;;1.30;1.20;;;8.50;99.90;;;;;;5109143;28;20408;-72
2022/09/22 02:16:20;;;;;;;1.50;1.40;;;8.50;99.90;;;;;;5111446;28;20415;-72
2022/09/22 02:18:58;;;;;;;2.30;1.53;;;8.40;99.90;;;;;;5110416;28;20496;-72
2022/09/22 02:21:26;;;;;;;2.30;1.50;;;8.40;99.90;;;;;;5111506;28;20376;-72
2022/09/22 02:23:53;;;;;;;1.40;1.30;;;8.40;99.90;;;;;;5105283;28;20425;-72
2022/09/22 02:26:23;;;;;;;1.60;1.50;;;8.30;99.90;;;;;;5110114;28;20410;-72
2022/09/22 02:28:53;;;;;;;1.60;1.50;;;8.30;99.90;;;;;;5110089;28;20468;-72
2022/09/22 02:31:20;;;;;;;1.40;1.30;;;8.30;99.90;;;;;;5109529;28;20384;-72
2022/09/22 02:33:49;;;;;;;2.50;1.30;;;8.20;99.90;;;;;;5112102;28;20388;-72
2022/09/22 02:36:37;;;;;;;1.58;1.42;;;8.20;99.90;;;;;;5107815;28;20419;-73
2022/09/22 02:39:16;;;;;;;1.90;1.40;;;8.20;99.90;;;;;;5110926;28;20384;-72
2022/09/22 02:42:05;;;;;;;1.58;1.42;;;8.20;99.90;;;;;;5112125;28;20454;-72
2022/09/22 02:44:38;;;;;;;1.52;1.30;;;8.00;99.90;;;;;;5111079;28;20401;-72
2022/09/22 02:47:21;;;;;;;1.40;1.30;;;7.90;99.90;;;;;;5112049;28;20495;-73
2022/09/22 02:49:48;;;;;;;1.40;1.30;;;8.10;99.90;;;;;;5111891;28;20391;-72
2022/09/22 02:52:14;;;;;;;1.60;1.25;;;8.20;99.90;;;;;;5111038;28;20427;-72
2022/09/22 02:54:39;;;;;;;1.90;1.30;;;8.30;99.90;;;;;;5111093;28;20399;-72
2022/09/22 02:57:07;;;;;;;1.50;1.40;;;8.30;99.90;;;;;;5112024;28;20380;-72
2022/09/22 02:59:33;;;;;;;1.50;1.17;;;8.20;99.90;;;;;;5111052;28;20404;-72
2022/09/22 03:01:58;;;;;;;1.95;1.75;;;8.00;99.90;;;;;;5111345;28;20380;-72
2022/09/22 03:04:24;;;;;;;2.33;1.40;;;8.00;99.90;;;;;;5111471;28;20901;-72
2022/09/22 03:06:49;;;;;;;1.55;1.42;;;8.00;99.90;;;;;;5112718;28;20430;-72
2022/09/22 03:09:16;;;;;;;1.60;1.50;;;7.90;99.90;;;;;;5111707;28;20408;-72
2022/09/22 03:11:42;;;;;;;2.72;1.50;;;7.90;99.90;;;;;;5108333;28;20400;-71
2022/09/22 03:14:08;;;;;;;1.80;1.60;;;7.80;99.90;;;;;;5110098;28;21015;-72
2022/09/22 03:16:34;;;;;;;3.00;1.30;;;7.80;99.90;;;;;;5103674;28;20404;-72
2022/09/22 03:19:00;;;;;;;1.50;1.40;;;7.60;99.90;;;;;;5110238;28;20453;-72
2022/09/22 03:21:25;;;;;;;1.50;1.40;;;7.50;99.90;;;;;;5111455;28;20392;-72
2022/09/22 03:23:51;;;;;;;3.80;1.20;;;7.50;99.90;;;;;;5111081;28;20384;-72
2022/09/22 03:26:16;;;;;;;1.67;1.57;;;7.40;99.90;;;;;;5108300;28;20462;-72
2022/09/22 03:28:45;;;;;;;2.10;1.60;;;7.50;99.90;;;;;;5109452;28;20485;-72
2022/09/22 03:31:10;;;;;;;2.37;1.50;;;7.60;99.90;;;;;;5111538;28;20513;-72
2022/09/22 03:33:36;;;;;;;3.50;1.60;;;7.50;99.90;;;;;;5111444;28;20452;-71
2022/09/22 03:36:02;;;;;;;1.60;1.50;;;7.40;99.90;;;;;;5110501;28;20493;-72
2022/09/22 03:38:28;;;;;;;2.00;1.40;;;7.50;99.90;;;;;;5111697;28;20945;-72
2022/09/22 03:40:53;;;;;;;2.00;1.60;;;7.40;99.90;;;;;;5111574;28;20459;-71
2022/09/22 03:43:19;;;;;;;1.90;1.80;;;7.30;99.90;;;;;;5111150;28;20390;-72
2022/09/22 03:45:45;;;;;;;2.30;1.60;;;7.40;99.90;;;;;;5109153;28;20400;-72
2022/09/22 03:48:11;;;;;;;2.77;1.87;;;7.30;99.90;;;;;;5110714;28;20418;-72
2022/09/22 03:50:36;;;;;;;2.50;1.47;;;7.50;99.90;;;;;;5111153;28;20418;-73
2022/09/22 03:53:02;;;;;;;1.60;1.50;;;7.50;99.90;;;;;;5109889;28;20381;-73
2022/09/22 03:55:28;;;;;;;3.60;1.70;;;7.30;99.90;;;;;;5110241;28;20474;-72
2022/09/22 03:57:54;;;;;;;1.90;1.67;;;7.30;99.90;;;;;;5110938;28;20449;-72
2022/09/22 04:00:19;;;;;;;2.00;1.80;;;7.20;99.90;;;;;;5111447;28;20865;-72
2022/09/22 04:02:45;;;;;;;1.80;1.70;;;7.10;99.90;;;;;;5108049;28;20400;-72
2022/09/22 04:05:11;;;;;;;3.10;1.80;;;7.10;99.90;;;;;;5104425;28;20412;-72
2022/09/22 04:07:36;;;;;;;2.22;2.03;;;7.20;99.90;;;;;;5109729;28;20400;-73
2022/09/22 04:10:03;;;;;;;2.40;1.63;;;7.20;99.90;;;;;;5110820;28;20461;-73
2022/09/22 04:12:28;;;;;;;1.48;1.38;;;7.10;99.90;;;;;;5110492;28;20384;-73
2022/09/22 04:14:54;;;;;;;1.80;1.70;;;7.10;99.90;;;;;;5109053;28;20411;-72
2022/09/22 04:17:19;;;;;;;2.00;1.88;;;6.90;99.90;;;;;;5110228;28;20384;-72
2022/09/22 04:19:46;;;;;;;1.90;1.80;;;7.00;99.90;;;;;;5110199;28;20428;-72
2022/09/22 04:22:11;;;;;;;1.77;1.67;;;6.90;99.90;;;;;;5109616;28;20404;-71
2022/09/22 04:24:37;;;;;;;2.03;1.40;;;7.00;99.90;;;;;;5107138;28;20428;-72
2022/09/22 04:27:03;;;;;;;2.20;1.70;;;7.10;99.90;;;;;;5106405;28;20432;-72
2022/09/22 04:29:29;;;;;;;2.25;1.80;;;7.00;99.90;;;;;;5109862;28;20376;-72
2022/09/22 04:31:55;;;;;;;1.70;1.60;;;7.10;99.90;;;;;;5108159;28;20404;-71
2022/09/22 04:34:20;;;;;;;2.42;1.55;;;6.90;99.90;;;;;;5107383;28;20423;-72
2022/09/22 04:36:46;;;;;;;2.05;1.85;;;7.00;99.90;;;;;;5107862;28;20424;-72
2022/09/22 04:39:12;;;;;;;2.60;2.00;;;7.10;99.90;;;;;;5110213;28;20384;-73
2022/09/22 04:41:37;;;;;;;1.90;1.70;;;7.00;99.90;;;;;;5109380;28;20400;-72
2022/09/22 04:44:03;;;;;;;2.08;1.80;;;7.00;99.90;;;;;;5109551;28;20404;-72
2022/09/22 04:46:28;;;;;;;1.85;1.45;;;6.90;99.90;;;;;;5110166;28;20393;-72
2022/09/22 04:48:54;;;;;;;2.35;2.15;;;6.90;99.90;;;;;;5110333;28;20408;-72
2022/09/22 04:51:19;;;;;;;1.97;1.73;;;6.90;99.90;;;;;;5105609;28;20843;-72
2022/09/22 04:53:45;;;;;;;1.60;1.50;;;6.90;99.90;;;;;;5109853;28;20376;-72
2022/09/22 04:56:11;;;;;;;2.23;1.80;;;6.90;99.90;;;;;;5110428;28;20410;-72
2022/09/22 04:58:36;;;;;;;1.87;1.77;;;6.80;99.90;;;;;;5107391;28;20394;-72
2022/09/22 05:01:04;;;;;;;2.60;2.00;;;6.80;99.90;;;;;;5107330;28;20482;-72
2022/09/22 05:03:30;;;;;;;3.40;1.88;;;6.80;99.90;;;;;;5108288;28;20404;-72
2022/09/22 05:05:55;;;;;;;2.40;2.20;;;6.80;99.90;;;;;;5109910;28;20384;-71
2022/09/22 05:08:21;;;;;;;3.20;1.80;;;6.80;99.90;;;;;;5107237;28;20419;-72
2022/09/22 05:10:46;;;;;;;2.03;1.90;;;6.80;99.90;;;;;;5105555;28;20401;-72
2022/09/22 05:13:12;;;;;;;2.20;2.00;;;6.80;99.90;;;;;;5109405;28;20461;-72
2022/09/22 05:15:39;;;;;;;2.58;2.28;;;6.70;99.90;;;;;;5107814;28;20392;-72
2022/09/22 05:18:04;;;;;;;3.08;2.10;;;6.70;99.90;;;;;;5108248;28;20410;-72
2022/09/22 05:20:30;;;;;;;2.40;2.20;;;6.90;99.90;;;;;;5098167;28;20400;-72
2022/09/22 05:22:55;;;;;;;2.40;2.20;;;6.70;99.90;;;;;;5106958;28;20933;-72
2022/09/22 05:25:21;;;;;;;3.65;2.35;;;6.70;99.90;;;;;;5107066;28;21141;-72
2022/09/22 05:27:48;;;;;;;2.58;2.38;;;6.70;99.90;;;;;;5109579;28;20490;-71
2022/09/22 05:30:15;;;;;;;2.40;2.20;;;6.70;99.90;;;;;;5102919;28;20392;-72
2022/09/22 05:32:45;;;;;;;4.67;2.30;;;6.80;99.90;;;;;;5106272;28;20411;-72
2022/09/22 05:35:12;;;;;;;3.28;2.30;;;6.80;99.90;;;;;;5105745;28;20403;-72
2022/09/22 05:37:38;;;;;;;4.47;2.40;;;6.80;99.90;;;;;;5107137;28;20422;-72
2022/09/22 05:40:05;;;;;;;2.42;2.10;;;6.80;99.90;;;;;;5107441;28;20408;-72
2022/09/22 05:42:31;;;;;;;3.00;2.20;;;6.70;99.90;;;;;;5099165;28;20969;-72
2022/09/22 05:44:57;;;;;;;1.80;1.70;;;6.90;99.90;;;;;;5100415;28;20494;-72
2022/09/22 05:47:22;;;;;;;2.10;1.90;;;6.80;99.90;;;;;;5109258;28;20407;-71
2022/09/22 05:49:48;;;;;;;2.60;2.20;;;6.80;99.90;;;;;;5108309;28;20571;-72
2022/09/22 05:52:13;;;;;;;2.40;2.20;;;6.80;99.90;;;;;;5107001;28;20889;-72
2022/09/22 05:54:39;;;;;;;4.07;2.00;;;6.90;99.90;;;;;;5106528;28;20459;-72
2022/09/22 05:57:04;;;;;;;3.13;1.83;;;6.90;99.90;;;;;;5112863;27;20453;-72
2022/09/22 05:59:30;;;;;;;2.60;2.30;;;6.90;99.90;;;;;;5113173;28;21119;-72
2022/09/22 06:01:55;;;;;;;2.93;2.40;;;7.00;99.90;;;;;;5111943;27;20402;-72
2022/09/22 06:04:21;;;;;;;2.43;2.20;;;7.00;99.90;;;;;;5116993;27;20414;-72
2022/09/22 06:06:46;;;;;;;3.33;2.00;;;7.00;99.90;;;;;;5124457;27;20422;-72
2022/09/22 06:09:12;;;;;;;2.50;2.30;;;6.90;99.90;;;;;;5113434;28;20409;-72
2022/09/22 06:11:37;;;;;;;2.70;1.73;;;7.00;99.90;;;;;;5113282;28;20432;-72
2022/09/22 06:14:03;;;;;;;2.37;2.17;;;7.10;99.90;;;;;;5112727;28;21059;-72
2022/09/22 06:16:30;;;;;;;2.20;2.00;;;7.10;99.90;;;;;;5113154;28;20373;-72
2022/09/22 06:18:55;;;;;;;2.30;2.10;;;7.20;99.90;;;;;;5123397;27;20479;-72
2022/09/22 06:21:22;;;;;;;1.83;1.70;;;7.30;99.90;;;;;;5113114;28;20539;-72
2022/09/22 06:23:47;;;;;;;2.20;2.00;;;7.30;99.90;;;;;;5099573;28;20448;-72
2022/09/22 06:26:13;;;;;;;2.60;1.90;;;7.40;99.90;;;;;;5093018;28;20417;-72
2022/09/22 06:28:38;;;;;;;5.32;2.08;;;7.40;99.90;;;;;;5090993;28;20394;-72
2022/09/22 06:31:05;;;;;;;3.72;2.00;;;7.50;99.90;;;;;;5092762;28;20382;-71
2022/09/22 06:33:30;;;;;;;3.60;2.00;;;7.50;99.90;;;;;;5097475;28;20376;-71
2022/09/22 06:35:57;;;;;;;2.33;2.10;;;7.60;99.90;;;;;;5115637;27;20414;-72
2022/09/22 06:38:22;;;;;;;2.30;2.00;;;7.60;99.90;;;;;;5110969;27;20401;-72
2022/09/22 06:40:49;;;;;;;4.25;2.20;;;7.70;99.90;;;;;;5108007;28;20453;-73
2022/09/22 06:43:19;;;;;;;2.50;2.30;;;7.80;99.90;;;;;;5110199;28;20423;-72
2022/09/22 06:45:45;;;;;;;2.00;1.67;;;8.00;99.90;;;;;;5110352;28;20400;-73
2022/09/22 06:48:11;;;;;;;2.40;2.20;;;8.00;99.90;;;;;;5112805;28;20405;-73
2022/09/22 06:50:39;;;;;;;3.28;1.92;;;8.10;99.90;;;;;;5108222;28;20406;-73
2022/09/22 06:53:06;;;;;;;2.80;1.70;;;8.20;99.90;;;;;;5101725;28;20501;-73
2022/09/22 06:55:32;;;;;;;2.42;1.88;;;8.30;99.90;;;;;;5108504;28;20457;-73
2022/09/22 06:58:00;;;;;;;2.50;1.80;;;8.30;99.90;;;;;;5114488;27;20983;-73
2022/09/22 07:00:31;;;;;;;3.35;1.50;;;8.50;99.90;;;;;;5111279;28;20388;-73
2022/09/22 07:03:19;;;;;;;3.03;1.50;;;8.60;99.90;;;;;;5110932;28;20927;-74
2022/09/22 07:06:12;;;;;;;1.58;1.48;;;8.70;99.90;;;;;;5110966;28;20491;-73
2022/09/22 07:08:38;;;;;;;2.80;2.40;;;8.80;99.90;;;;;;5103967;28;20384;-73
2022/09/22 07:11:08;;;;;;;2.30;1.80;;;9.00;99.90;;;;;;5111453;28;20455;-73
2022/09/22 07:13:37;;;;;;;3.35;1.80;;;9.10;99.90;;;;;;5103562;27;20419;-73
2022/09/22 07:16:12;;;;;;;2.00;1.80;;;9.20;99.90;;;;;;5117968;27;20908;-72
2022/09/22 07:18:39;;;;;;;2.13;1.70;;;9.20;99.90;;;;;;5110144;27;20741;-72
2022/09/22 07:21:23;;;;;;;3.50;2.00;;;9.20;99.90;;;;;;5122742;27;20383;-73
2022/09/22 07:23:51;;;;;;;1.90;1.70;;;9.30;99.90;;;;;;5105435;28;20933;-72
2022/09/22 07:26:20;;;;;;;2.60;2.40;;;9.40;99.90;;;;;;5103779;28;20460;-72
2022/09/22 07:28:49;;;;;;;2.70;2.15;;;9.50;99.90;;;;;;5106004;28;20923;-72
2022/09/22 07:31:15;;;;;;;3.80;2.00;;;9.40;99.90;;;;;;5101165;28;20457;-72
2022/09/22 07:33:42;;;;;;;3.25;2.30;;;9.50;99.90;;;;;;5102419;28;20400;-72
2022/09/22 07:36:19;;;;;;;5.25;2.50;;;9.50;99.90;;;;;;5101159;28;20773;-72
2022/09/22 07:38:48;;;;;;;3.58;2.83;;;9.60;99.90;;;;;;5105358;28;20395;-74
2022/09/22 07:41:22;;;;;;;3.75;2.78;;;9.60;99.90;;;;;;5103011;28;20820;-73
2022/09/22 07:43:52;;;;;;;3.42;2.60;;;9.60;99.90;;;;;;5102201;28;20473;-73
2022/09/22 07:46:19;;;;;;;3.00;2.70;;;9.70;99.90;;;;;;5103510;28;20374;-72
2022/09/22 07:48:45;;;;;;;3.30;2.70;;;9.80;99.90;;;;;;5103692;28;20469;-72
2022/09/22 07:51:20;;;;;;;2.22;2.05;;;9.80;99.90;;;;;;5101286;27;20423;-72
2022/09/22 07:54:06;;;;;;;2.58;2.38;;;9.70;99.90;;;;;;5100945;28;20384;-71
2022/09/22 07:56:33;;;;;;;2.78;2.58;;;9.80;99.90;;;;;;5102665;28;20404;-72
2022/09/22 07:59:09;;;;;;;2.75;2.45;;;9.80;99.90;;;;;;5099393;28;20450;-73
2022/09/22 08:01:40;;;;;;;2.80;2.30;;;9.90;99.90;;;;;;5100464;28;20405;-73
2022/09/22 08:04:06;;;;;;;2.40;2.20;;;10.00;99.90;;;;;;5098457;28;20406;-72
2022/09/22 08:06:33;;;;;;;3.10;2.37;;;10.00;99.90;;;;;;5099786;28;20458;-73
2022/09/22 08:09:03;;;;;;;4.50;2.30;;;10.10;99.90;;;;;;5098371;28;20396;-73
2022/09/22 08:11:29;;;;;;;2.40;2.20;;;10.20;99.90;;;;;;5100866;28;20453;-72
2022/09/22 08:13:58;;;;;;;2.90;2.47;;;10.30;99.90;;;;;;5101213;28;20404;-73
2022/09/22 08:16:29;;;;;;;3.42;2.38;;;10.50;99.90;;;;;;5103509;28;20472;-73
2022/09/22 08:19:01;;;;;;;3.60;2.78;;;10.50;99.90;;;;;;5098913;28;20921;-73
2022/09/22 08:21:31;;;;;;;3.67;2.60;;;10.50;99.90;;;;;;5100182;28;20452;-71
2022/09/22 08:23:58;;;;;;;3.10;2.80;;;10.60;99.90;;;;;;5096995;28;20414;-72
2022/09/22 08:26:24;;;;;;;4.10;3.20;;;10.50;99.90;;;;;;5101057;28;20414;-73
2022/09/22 08:28:54;;;;;;;3.33;3.03;;;10.70;99.90;;;;;;5102272;28;20413;-73
2022/09/22 08:31:21;;;;;;;5.00;3.30;;;10.70;99.90;;;;;;5105972;28;20413;-72
2022/09/22 08:33:48;;;;;;;3.50;3.08;;;10.80;99.90;;;;;;5096364;28;20401;-71
2022/09/22 08:36:14;;;;;;;3.35;3.05;;;10.90;99.90;;;;;;5097207;28;20713;-72
2022/09/22 08:38:40;;;;;;;3.50;2.90;;;11.00;99.90;;;;;;5108482;28;20403;-72
2022/09/22 08:41:27;;;;;;;4.67;2.80;;;11.00;99.90;;;;;;5108119;28;20403;-72
2022/09/22 08:44:00;;;;;;;3.30;3.00;;;11.20;99.90;;;;;;5105602;28;20396;-72
2022/09/22 08:46:33;;;;;;;4.00;3.40;;;11.20;99.90;;;;;;5101921;27;20396;-72
2022/09/22 08:52:03;;;;;;;3.15;2.80;;;11.50;99.90;;;;;;5101026;28;20413;-73
2022/09/22 08:54:30;;;;;;;3.47;2.80;;;11.40;99.90;;;;;;5110265;28;20372;-72
2022/09/22 08:57:15;;;;;;;5.20;3.00;;;11.30;99.90;;;;;;5110327;28;20472;-72
2022/09/22 08:59:48;;;;;;;3.10;2.80;;;11.70;99.90;;;;;;5105360;28;20403;-72
2022/09/22 09:02:32;;;;;;;3.25;2.88;;;11.60;99.90;;;;;;5109019;28;20447;-72
2022/09/22 09:05:33;;;;;;;2.70;2.50;;;11.70;99.90;;;;;;5105914;28;20379;-72
2022/09/22 09:08:40;;;;;;;3.10;2.80;;;11.80;99.90;;;;;;5046717;28;20413;-72
2022/09/22 09:11:37;;;;;;;4.10;2.97;;;11.80;99.90;;;;;;5089688;28;20385;-74
2022/09/22 09:14:21;;;;;;;6.57;3.00;;;11.90;99.90;;;;;;5093190;28;20398;-72
2022/09/22 09:17:05;;;;;;;2.80;2.47;;;12.10;99.90;;;;;;5107870;28;20400;-73
2022/09/22 09:19:41;;;;;;;3.45;2.50;;;12.20;99.90;;;;;;5091256;28;20439;-72
2022/09/22 09:22:24;;;;;;;2.60;2.40;;;12.20;99.90;;;;;;5093886;28;20382;-72
2022/09/22 09:25:02;;;;;;;3.38;3.08;;;12.20;99.90;;;;;;5110049;28;20445;-73
2022/09/22 09:27:32;;;;;;;4.10;2.95;;;12.20;99.90;;;;;;5112708;28;20404;-73
2022/09/22 09:30:10;;;;;;;5.15;3.83;;;12.30;99.90;;;;;;5113844;28;20404;-74
2022/09/22 09:32:44;;;;;;;3.38;3.08;;;12.30;99.90;;;;;;5112323;28;20800;-74
2022/09/22 09:35:15;;;;;;;4.80;2.67;;;12.30;99.90;;;;;;5111911;28;20388;-73
2022/09/22 09:37:46;;;;;;;3.58;2.40;;;12.60;99.90;;;;;;5112457;28;20403;-73
2022/09/22 09:40:18;;;;;;;2.80;2.60;;;12.60;99.90;;;;;;5112257;28;20380;-74
2022/09/22 09:42:48;;;;;;;3.08;2.33;;;12.60;99.90;;;;;;5113606;28;20380;-74
2022/09/22 09:45:15;;;;;;;2.90;2.70;;;12.70;99.90;;;;;;5114028;28;20383;-73
2022/09/22 09:47:51;;;;;;;3.70;2.90;;;12.70;99.90;;;;;;5112406;28;20777;-74
2022/09/22 09:50:17;;;;;;;4.10;3.00;;;12.70;99.90;;;;;;5110887;28;20475;-74
2022/09/22 09:52:44;;;;;;;2.80;2.50;;;12.90;99.90;;;;;;5110447;28;20399;-74
2022/09/22 09:55:24;;;;;;;3.70;3.00;;;12.90;99.90;;;;;;5110115;28;20468;-74
2022/09/22 09:58:10;;;;;;;3.23;2.67;;;12.90;99.90;;;;;;5107425;28;20446;-74
2022/09/22 10:00:57;;;;;;;2.78;2.58;;;13.10;99.90;;;;;;5105553;28;20398;-74
2022/09/22 10:03:34;;;;;;;5.30;4.75;;;13.10;99.90;;;;;;5110840;27;20396;-74
2022/09/22 10:06:05;;;;;;;4.07;2.90;;;13.20;99.90;;;;;;5102392;28;20434;-72
2022/09/22 10:08:35;;;;;;;3.20;2.60;;;13.30;99.90;;;;;;5104217;28;20410;-73
2022/09/22 10:11:02;;;;;;;4.47;3.08;;;13.30;99.90;;;;;;5101912;28;20712;-74
2022/09/22 10:13:30;;;;;;;3.38;2.90;;;13.30;99.90;;;;;;5101123;28;20400;-73
2022/09/22 10:16:05;;;;;;;3.58;3.13;;;13.50;99.90;;;;;;5103736;28;20396;-73
2022/09/22 10:18:38;;;;;;;3.60;2.70;;;13.60;99.90;;;;;;5103285;28;20408;-73
2022/09/22 10:21:16;;;;;;;3.38;2.90;;;13.70;99.90;;;;;;5102307;28;20481;-74
2022/09/22 10:23:47;;;;;;;4.97;2.40;;;13.70;99.90;;;;;;5098670;28;20490;-72
2022/09/22 10:26:27;;;;;;;2.97;2.67;;;13.80;99.90;;;;;;5106089;28;20433;-72
2022/09/22 10:29:17;;;;;;;3.53;2.78;;;13.80;99.90;;;;;;5108489;28;20404;-73
2022/09/22 10:32:02;;;;;;;4.80;3.00;;;13.90;99.90;;;;;;5106672;28;20396;-73
2022/09/22 10:34:58;;;;;;;3.00;2.60;;;13.90;99.90;;;;;;5111685;28;20392;-74
2022/09/22 10:37:27;;;;;;;3.78;2.30;;;14.00;99.90;;;;;;5105593;28;20400;-73
2022/09/22 10:39:57;;;;;;;3.90;2.72;;;14.20;99.90;;;;;;5105498;28;20968;-74
2022/09/22 10:42:39;;;;;;;5.00;2.80;;;14.10;99.90;;;;;;5111951;28;20381;-74
2022/09/22 10:45:12;;;;;;;3.53;2.60;;;14.20;99.90;;;;;;5106278;28;20400;-73
2022/09/22 10:47:57;;;;;;;3.43;2.70;;;14.50;99.90;;;;;;5107357;28;20400;-73
2022/09/22 10:50:57;;;;;;;3.30;2.65;;;14.50;99.90;;;;;;5103828;28;20464;-74
2022/09/22 10:53:47;;;;;;;3.67;3.03;;;14.60;99.90;;;;;;5105528;28;20483;-74
2022/09/22 10:56:28;;;;;;;3.50;3.00;;;14.80;99.90;;;;;;5106281;28;20382;-73
2022/09/22 10:59:21;;;;;;;3.05;2.80;;;15.00;99.90;;;;;;5107237;28;20404;-74
2022/09/22 11:02:06;;;;;;;4.45;2.65;;;15.20;99.90;;;;;;5102065;28;20464;-74
2022/09/22 11:04:53;;;;;;;5.80;3.65;;;15.20;99.90;;;;;;5102967;28;20763;-74
2022/09/22 11:13:58;;;;;;;3.33;2.70;;;16.00;99.90;;;;;;5111751;28;20501;-74
2022/09/22 11:16:42;;;;;;;3.20;2.90;;;16.30;99.90;;;;;;5112291;28;20408;-73
2022/09/22 11:19:30;;;;;;;3.75;2.60;;;16.30;98.60;;;;;;5109994;27;20400;-74
2022/09/22 11:22:21;;;;;;;3.07;2.60;;;16.90;98.80;;;;;;5098758;28;20500;-74
2022/09/22 11:25:20;;;;;;;3.03;2.53;;;17.40;96.50;;;;;;5100421;28;20473;-73
2022/09/22 11:27:57;;;;;;;3.10;2.30;;;18.30;90.70;;;;;;5090958;28;20731;-75
2022/09/22 11:30:23;;;;;;;2.33;2.03;;;19.50;86.30;;;;;;5107542;28;20407;-74
2022/09/22 11:33:07;;;;;;;2.53;2.00;;;19.00;80.00;;;;;;5101301;28;20475;-71
2022/09/22 11:36:07;;;;;;;2.10;1.85;;;19.80;80.80;;;;;;5106304;28;20472;-71
2022/09/22 11:38:47;;;;;;;3.90;1.90;;;19.50;75.60;;;;;;5111919;27;20719;-72
2022/09/22 11:41:38;;;;;;;3.92;2.13;;;19.90;75.90;;;;;;5111531;28;20386;-72
2022/09/22 11:44:28;;;;;;;2.70;1.90;;;19.70;77.10;;;;;;5108919;28;20400;-72
2022/09/22 11:47:17;;;;;;;3.50;1.95;;;19.10;76.60;;;;;;5106903;28;20415;-71
2022/09/22 11:50:04;;;;;;;2.17;1.70;;;18.80;79.30;;;;;;5102360;28;20379;-72
2022/09/22 11:52:56;;;;;;;2.30;1.80;;;19.10;79.80;;;;;;5105519;28;20395;-70
2022/09/22 11:55:53;;;;;;;2.55;1.50;;;19.00;78.90;;;;;;5103299;28;20406;-71
2022/09/22 11:58:22;;;;;;;2.13;1.67;;;18.70;79.40;;;;;;5109032;28;20377;-73
2022/09/22 12:00:56;;;;;;;1.85;1.70;;;19.20;77.70;;;;;;5107394;28;20479;-72
2022/09/22 12:03:27;;;;;;;1.70;1.60;;;19.90;75.20;;;;;;5109697;28;20383;-72
2022/09/22 12:06:02;;;;;;;3.00;1.58;;;19.80;77.70;;;;;;5107614;28;20392;-73
2022/09/22 12:08:35;;;;;;;1.70;1.60;;;19.50;78.50;;;;;;5109796;28;20766;-72
2022/09/22 12:11:04;;;;;;;2.40;1.50;;;19.50;77.10;;;;;;5110752;28;20372;-72
2022/09/22 12:13:31;;;;;;;2.07;1.50;;;19.70;78.00;;;;;;5107356;28;20400;-72
2022/09/22 12:16:18;;;;;;;1.90;1.70;;;19.50;76.90;;;;;;5110980;28;20820;-71
2022/09/22 12:19:12;;;;;;;3.40;1.55;;;19.10;78.60;;;;;;5093050;28;20404;-72
2022/09/22 12:22:04;;;;;;;1.80;1.63;;;19.10;81.10;;;;;;5108265;28;20483;-72
2022/09/22 12:24:30;;;;;;;2.10;1.40;;;19.30;80.70;;;;;;5105550;28;20556;-73
2022/09/22 12:26:56;;;;;;;3.50;1.60;;;19.10;79.40;;;;;;5105880;28;20403;-72
2022/09/22 12:29:35;;;;;;;13.10;11.53;;;18.80;79.00;;;;;;5110233;28;20475;-72
2022/09/22 12:32:01;;;;;;;1.40;1.30;;;19.10;82.20;;;;;;5103986;28;20749;-72
2022/09/22 12:34:38;;;;;;;1.85;1.63;;;19.20;89.30;;;;;;5105144;28;20473;-72
2022/09/22 12:37:25;;;;;;;1.70;1.45;;;19.00;80.00;;;;;;5114722;27;20390;-71
2022/09/22 12:39:51;;;;;;;3.60;1.70;;;18.80;79.10;;;;;;5096855;28;20402;-72
2022/09/22 12:42:34;;;;;;;1.70;1.38;;;18.80;79.60;;;;;;5099445;28;20811;-72
2022/09/22 12:45:25;;;;;;;1.20;1.10;;;19.00;82.30;;;;;;5103480;28;21041;-72
2022/09/22 12:47:54;;;;;;;1.40;1.30;;;19.20;80.10;;;;;;5103598;28;20435;-73
2022/09/22 12:50:22;;;;;;;1.58;1.30;;;19.10;82.30;;;;;;5103246;28;20475;-73
2022/09/22 12:52:49;;;;;;;1.40;1.30;;;19.20;80.20;;;;;;5102599;28;20396;-73
2022/09/22 12:55:37;;;;;;;2.00;1.60;;;19.40;77.80;;;;;;5107844;28;20420;-72
2022/09/22 12:58:22;;;;;;;1.60;1.50;;;19.10;78.60;;;;;;5105135;28;20388;-72
2022/09/22 13:00:49;;;;;;;17.85;14.18;;;19.00;78.30;;;;;;5101435;28;20392;-72
2022/09/22 13:03:23;;;;;;;1.92;1.40;;;19.20;80.30;;;;;;5107606;28;20391;-73
2022/09/22 13:06:21;;;;;;;11.85;9.43;;;19.10;78.50;;;;;;5109996;28;20384;-73
2022/09/22 13:08:59;;;;;;;2.13;1.83;;;19.40;82.20;;;;;;5083600;28;20949;-72
2022/09/22 13:12:02;;;;;;;1.27;1.17;;;19.70;78.80;;;;;;5109108;28;20392;-72
2022/09/22 13:14:56;;;;;;;1.95;1.50;;;19.70;78.30;;;;;;5089816;28;20402;-73
2022/09/22 13:17:32;;;;;;;2.00;1.50;;;19.70;80.10;;;;;;5089731;28;20419;-72
2022/09/22 13:19:57;;;;;;;2.20;1.50;;;19.90;75.60;;;;;;5102941;28;20387;-73
2022/09/22 13:22:23;;;;;;;2.07;1.53;;;20.00;78.70;;;;;;5108276;28;20769;-72
2022/09/22 13:24:48;;;;;;;1.60;1.50;;;20.00;75.60;;;;;;5103138;28;20400;-70
2022/09/22 13:27:14;;;;;;;2.07;1.50;;;20.00;75.20;;;;;;5101492;28;20405;-72
2022/09/22 13:29:56;;;;;;;1.85;1.35;;;20.10;76.20;;;;;;5100937;28;20483;-72
2022/09/22 13:32:25;;;;;;;5.40;1.60;;;20.30;75.30;;;;;;5108021;28;20384;-72